createdAt,value
2023-05-18T00:00:54.312Z,100.00
2023-05-18T00:03:21.599Z,100.00
2023-05-18T00:05:49.389Z,100.00
2023-05-18T00:08:16.148Z,100.00
2023-05-18T00:10:42.981Z,100.00
2023-05-18T00:13:09.786Z,100.00
2023-05-18T00:15:36.653Z,100.00
2023-05-18T00:18:03.655Z,100.00
2023-05-18T00:20:30.412Z,100.00
2023-05-18T00:22:57.224Z,100.00
2023-05-18T00:25:24.401Z,100.00
2023-05-18T00:27:52.189Z,100.00
2023-05-18T00:30:19.224Z,100.00
2023-05-18T00:32:46.111Z,100.00
2023-05-18T00:35:13.005Z,100.00
2023-05-18T00:37:39.809Z,100.00
2023-05-18T00:40:07.411Z,100.00
2023-05-18T00:42:34.262Z,100.00
2023-05-18T00:45:01.528Z,100.00
2023-05-18T00:47:28.528Z,100.00
2023-05-18T00:49:55.494Z,100.00
2023-05-18T00:52:23.782Z,100.00
2023-05-18T00:54:51.773Z,100.00
2023-05-18T00:57:19.333Z,100.00
2023-05-18T00:59:49.849Z,100.00
2023-05-18T01:02:17.135Z,100.00
2023-05-18T01:04:43.820Z,100.00
2023-05-18T01:07:11.453Z,100.00
2023-05-18T01:09:38.975Z,100.00
2023-05-18T01:12:11.985Z,100.00
2023-05-18T01:15:03.758Z,100.00
2023-05-18T01:17:55.450Z,100.00
2023-05-18T01:20:41.590Z,100.00
2023-05-18T01:23:29.769Z,100.00
2023-05-18T01:25:56.617Z,100.00
2023-05-18T01:28:28.750Z,100.00
2023-05-18T01:30:57.118Z,100.00
2023-05-18T01:33:25.303Z,100.00
2023-05-18T01:35:54.581Z,100.00
2023-05-18T01:38:25.851Z,100.00
2023-05-18T01:41:17.555Z,100.00
2023-05-18T01:43:53.525Z,100.00
2023-05-18T01:46:55.551Z,100.00
2023-05-18T01:49:34.492Z,100.00
2023-05-18T01:52:06.962Z,100.00
2023-05-18T01:54:36.460Z,100.00
2023-05-18T01:59:33.879Z,100.00
2023-05-18T02:02:01.609Z,100.00
2023-05-18T02:04:31.632Z,100.00
2023-05-18T02:06:58.459Z,100.00
2023-05-18T02:09:25.208Z,100.00
2023-05-18T02:11:59.337Z,100.00
2023-05-18T02:14:26.684Z,100.00
2023-05-18T02:16:54.717Z,100.00
2023-05-18T02:19:22.420Z,100.00
2023-05-18T02:21:49.251Z,100.00
2023-05-18T02:24:17.865Z,100.00
2023-05-18T02:26:45.113Z,100.00
2023-05-18T02:29:12.166Z,100.00
2023-05-18T02:31:39.318Z,100.00
2023-05-18T02:34:06.891Z,100.00
2023-05-18T02:36:40.457Z,100.00
2023-05-18T02:39:08.063Z,100.00
2023-05-18T02:41:35.966Z,100.00
2023-05-18T02:44:06.019Z,100.00
2023-05-18T02:46:35.297Z,100.00
2023-05-18T02:49:02.209Z,100.00
2023-05-18T02:51:30.473Z,100.00
2023-05-18T02:53:57.730Z,100.00
2023-05-18T02:56:24.873Z,100.00
2023-05-18T02:58:58.136Z,100.00
2023-05-18T03:01:28.383Z,100.00
2023-05-18T03:03:58.032Z,100.00
2023-05-18T03:06:30.507Z,100.00
2023-05-18T03:08:57.392Z,100.00
2023-05-18T03:11:26.976Z,100.00
2023-05-18T03:13:54.943Z,100.00
2023-05-18T03:16:21.721Z,100.00
2023-05-18T03:18:49.054Z,100.00
2023-05-18T03:21:16.789Z,100.00
2023-05-18T03:23:43.627Z,100.00
2023-05-18T03:26:11.918Z,100.00
2023-05-18T03:28:39.538Z,100.00
2023-05-18T03:31:06.670Z,100.00
2023-05-18T03:33:33.647Z,100.00
2023-05-18T03:36:05.084Z,100.00
2023-05-18T03:38:32.129Z,100.00
2023-05-18T03:40:59.065Z,100.00
2023-05-18T03:43:26.195Z,100.00
2023-05-18T03:45:55.645Z,100.00
2023-05-18T03:48:24.069Z,100.00
2023-05-18T03:50:51.158Z,100.00
2023-05-18T03:53:24.153Z,100.00
2023-05-18T03:55:51.951Z,100.00
2023-05-18T03:58:21.412Z,100.00
2023-05-18T04:00:49.691Z,100.00
2023-05-18T04:03:16.841Z,100.00
2023-05-18T04:05:43.799Z,100.00
2023-05-18T04:08:14.654Z,100.00
2023-05-18T04:10:43.397Z,100.00
2023-05-18T04:13:10.778Z,100.00
2023-05-18T04:15:38.383Z,100.00
2023-05-18T04:18:07.380Z,100.00
2023-05-18T04:20:34.364Z,100.00
2023-05-18T04:23:01.288Z,100.00
2023-05-18T04:25:28.663Z,100.00
2023-05-18T04:27:56.509Z,100.00
2023-05-18T04:30:26.784Z,100.00
2023-05-18T04:32:54.909Z,100.00
2023-05-18T04:35:22.165Z,100.00
2023-05-18T04:37:48.963Z,100.00
2023-05-18T04:40:18.390Z,100.00
2023-05-18T04:42:48.291Z,100.00
2023-05-18T04:45:19.718Z,100.00
2023-05-18T04:47:53.632Z,100.00
2023-05-18T04:50:23.986Z,100.00
2023-05-18T04:52:52.086Z,100.00
2023-05-18T04:55:23.472Z,100.00
2023-05-18T04:57:50.945Z,100.00
2023-05-18T05:00:18.484Z,100.00
2023-05-18T05:02:45.519Z,100.00
2023-05-18T05:05:12.727Z,100.00
2023-05-18T05:07:39.649Z,100.00
2023-05-18T05:10:07.113Z,100.00
2023-05-18T05:12:36.957Z,100.00
2023-05-18T05:15:04.098Z,100.00
2023-05-18T05:17:31.084Z,100.00
2023-05-18T05:19:57.869Z,100.00
2023-05-18T05:22:24.832Z,100.00
2023-05-18T05:24:52.068Z,100.00
2023-05-18T05:27:19.966Z,100.00
2023-05-18T05:29:47.599Z,100.00
2023-05-18T05:32:14.492Z,100.00
2023-05-18T05:34:44.479Z,100.00
2023-05-18T05:37:11.299Z,100.00
2023-05-18T05:39:38.070Z,100.00
2023-05-18T05:42:06.102Z,100.00
2023-05-18T05:44:33.029Z,100.00
2023-05-18T05:46:59.987Z,100.00
2023-05-18T05:49:27.186Z,100.00
2023-05-18T05:51:54.072Z,100.00
2023-05-18T05:54:21.393Z,100.00
2023-05-18T05:56:57.309Z,100.00
2023-05-18T05:59:27.964Z,100.00
2023-05-18T06:01:54.985Z,100.00
2023-05-18T06:04:22.130Z,100.00
2023-05-18T06:06:49.590Z,100.00
2023-05-18T06:09:21.949Z,100.00
2023-05-18T06:11:48.898Z,100.00
2023-05-18T06:14:16.361Z,100.00
2023-05-18T06:16:43.670Z,100.00
2023-05-18T06:19:14.238Z,100.00
2023-05-18T06:21:48.826Z,100.00
2023-05-18T06:24:20.130Z,100.00
2023-05-18T06:26:53.405Z,100.00
2023-05-18T06:29:21.863Z,99.63
2023-05-18T06:31:49.073Z,100.00
2023-05-18T06:34:19.551Z,100.00
2023-05-18T06:39:53.524Z,100.00
2023-05-18T06:42:20.637Z,100.00
2023-05-18T06:44:50.798Z,98.81
2023-05-18T06:47:18.442Z,99.29
2023-05-18T06:49:46.158Z,98.70
2023-05-18T06:52:17.321Z,97.43
2023-05-18T06:54:53.366Z,100.00
2023-05-18T06:57:23.086Z,99.85
2023-05-18T06:59:53.991Z,100.00
2023-05-18T07:02:23.177Z,100.00
2023-05-18T07:04:50.847Z,100.00
2023-05-18T07:07:24.045Z,98.32
2023-05-18T07:09:51.022Z,95.88
2023-05-18T07:12:18.425Z,97.20
2023-05-18T07:14:46.073Z,96.35
2023-05-18T07:17:15.212Z,95.38
2023-05-18T07:19:47.434Z,94.94
2023-05-18T07:22:14.965Z,94.62
2023-05-18T07:24:42.338Z,93.68
2023-05-18T07:27:12.726Z,88.42
2023-05-18T07:29:43.047Z,87.96
2023-05-18T07:32:22.105Z,90.14
2023-05-18T07:34:55.760Z,89.54
2023-05-18T07:37:23.101Z,92.46
2023-05-18T07:39:49.983Z,90.84
2023-05-18T07:42:18.617Z,84.59
2023-05-18T07:44:49.542Z,88.35
2023-05-18T07:47:29.964Z,84.91
2023-05-18T07:49:57.133Z,87.75
2023-05-18T07:52:24.220Z,83.11
2023-05-18T07:54:53.347Z,88.32
2023-05-18T07:57:24.036Z,88.25
2023-05-18T07:59:51.573Z,85.74
2023-05-18T08:03:06.012Z,88.03
2023-05-18T08:05:33.390Z,91.07
2023-05-18T08:08:00.990Z,90.78
2023-05-18T08:10:31.014Z,92.69
2023-05-18T08:12:58.816Z,94.98
2023-05-18T08:15:25.783Z,98.27
2023-05-18T08:17:57.579Z,99.23
2023-05-18T08:20:26.479Z,100.00
2023-05-18T08:22:57.885Z,100.00
2023-05-18T08:25:26.124Z,100.00
2023-05-18T08:27:54.045Z,100.00
2023-05-18T08:30:21.956Z,98.93
2023-05-18T08:32:52.308Z,100.00
2023-05-18T08:35:20.557Z,100.00
2023-05-18T08:37:50.702Z,99.71
2023-05-18T08:40:21.901Z,100.00
2023-05-18T08:43:02.192Z,100.00
2023-05-18T08:45:55.407Z,100.00
2023-05-18T08:48:28.438Z,100.00
2023-05-18T08:50:59.238Z,100.00
2023-05-18T08:53:27.293Z,100.00
2023-05-18T08:55:54.820Z,100.00
2023-05-18T08:58:35.223Z,100.00
2023-05-18T09:01:02.961Z,100.00
2023-05-18T09:03:30.104Z,100.00
2023-05-18T09:06:01.294Z,100.00
2023-05-18T09:08:29.613Z,100.00
2023-05-18T09:10:59.345Z,100.00
2023-05-18T09:13:27.288Z,100.00
2023-05-18T09:15:54.219Z,100.00
2023-05-18T09:18:23.893Z,100.00
2023-05-18T09:20:52.308Z,100.00
2023-05-18T09:23:19.242Z,100.00
2023-05-18T09:25:50.129Z,100.00
2023-05-18T09:28:38.977Z,100.00
2023-05-18T09:31:09.149Z,100.00
2023-05-18T09:33:38.967Z,97.32
2023-05-18T09:36:07.462Z,98.78
2023-05-18T09:38:39.037Z,99.86
2023-05-18T09:41:11.444Z,98.52
2023-05-18T09:43:39.446Z,99.41
2023-05-18T09:46:08.332Z,100.00
2023-05-18T09:48:43.018Z,100.00
2023-05-18T09:51:17.208Z,100.00
2023-05-18T09:54:07.592Z,100.00
2023-05-18T09:56:39.141Z,100.00
2023-05-18T09:59:11.522Z,100.00
2023-05-18T10:01:56.893Z,99.41
2023-05-18T10:04:24.148Z,100.00
2023-05-18T10:06:52.277Z,100.00
2023-05-18T10:09:19.983Z,100.00
2023-05-18T10:11:46.807Z,100.00
2023-05-18T10:14:14.216Z,100.00
2023-05-18T10:16:43.444Z,100.00
2023-05-18T10:19:13.150Z,100.00
2023-05-18T10:21:43.233Z,100.00
2023-05-18T10:24:16.598Z,100.00
2023-05-18T10:26:50.607Z,100.00
2023-05-18T10:29:21.997Z,100.00
2023-05-18T10:31:51.248Z,100.00
2023-05-18T10:34:23.369Z,100.00
2023-05-18T10:36:50.681Z,100.00
2023-05-18T10:39:18.706Z,100.00
2023-05-18T10:41:47.064Z,100.00
2023-05-18T10:44:14.957Z,100.00
2023-05-18T10:46:43.376Z,96.47
2023-05-18T10:49:13.787Z,93.32
2023-05-18T10:51:46.451Z,99.94
2023-05-18T10:54:14.932Z,94.61
2023-05-18T10:56:44.999Z,95.33
2023-05-18T10:59:16.576Z,96.94
2023-05-18T11:01:45.215Z,95.91
2023-05-18T11:04:15.804Z,92.22
2023-05-18T11:06:43.135Z,98.47
2023-05-18T11:09:26.802Z,98.88
2023-05-18T11:11:57.122Z,96.33
2023-05-18T11:14:30.931Z,97.57
2023-05-18T11:17:24.338Z,98.28
2023-05-18T11:20:09.495Z,99.46
2023-05-18T11:23:02.253Z,99.59
2023-05-18T11:25:29.598Z,99.61
2023-05-18T11:28:06.347Z,100.00
2023-05-18T11:30:40.902Z,100.00
2023-05-18T11:36:23.930Z,100.00
2023-05-18T11:39:00.141Z,98.61
2023-05-18T11:41:47.551Z,96.83
2023-05-18T11:44:15.482Z,96.19
2023-05-18T11:47:03.739Z,97.87
2023-05-18T11:49:36.858Z,98.94
2023-05-18T11:52:06.920Z,99.79
2023-05-18T11:54:39.382Z,98.93
2023-05-18T11:57:08.233Z,100.00
2023-05-18T11:59:39.743Z,100.00
2023-05-18T12:02:08.269Z,100.00
2023-05-18T12:04:47.135Z,100.00
2023-05-18T12:07:20.446Z,100.00
2023-05-18T12:12:30.745Z,100.00
2023-05-18T12:15:01.295Z,100.00
2023-05-18T12:17:46.332Z,100.00
2023-05-18T12:20:19.575Z,100.00
2023-05-18T12:22:55.017Z,100.00
2023-05-18T12:25:27.219Z,100.00
2023-05-18T12:27:55.281Z,100.00
2023-05-18T12:30:37.282Z,100.00
2023-05-18T12:33:05.325Z,100.00
2023-05-18T12:35:33.934Z,100.00
2023-05-18T12:38:02.258Z,100.00
2023-05-18T12:40:48.071Z,100.00
2023-05-18T12:43:15.647Z,100.00
2023-05-18T12:45:45.357Z,100.00
2023-05-18T12:48:13.569Z,100.00
2023-05-18T12:50:54.589Z,100.00
2023-05-18T12:53:55.164Z,100.00
2023-05-18T12:56:13.635Z,100.00
2023-05-18T12:58:55.390Z,100.00
2023-05-18T13:01:25.337Z,100.00
2023-05-18T13:04:02.016Z,100.00
2023-05-18T13:06:44.097Z,100.00
2023-05-18T13:09:17.490Z,100.00
2023-05-18T13:12:00.237Z,100.00
2023-05-18T13:14:38.995Z,100.00
2023-05-18T13:17:06.310Z,100.00
2023-05-18T13:19:36.886Z,100.00
2023-05-18T13:22:04.981Z,100.00
2023-05-18T13:24:35.328Z,100.00
2023-05-18T13:27:05.481Z,100.00
2023-05-18T13:29:35.454Z,100.00
2023-05-18T13:32:03.086Z,100.00
2023-05-18T13:34:37.991Z,100.00
2023-05-18T13:37:05.523Z,100.00
2023-05-18T13:39:35.620Z,100.00
2023-05-18T13:42:05.010Z,100.00
2023-05-18T13:44:32.382Z,100.00
2023-05-18T13:47:04.066Z,100.00
2023-05-18T13:49:31.175Z,100.00
2023-05-18T13:52:00.734Z,100.00
2023-05-18T13:54:30.967Z,100.00
2023-05-18T13:56:58.298Z,100.00
2023-05-18T13:59:27.796Z,100.00
2023-05-18T14:01:55.125Z,100.00
2023-05-18T14:04:25.226Z,100.00
2023-05-18T14:06:56.154Z,100.00
2023-05-18T14:09:30.402Z,100.00
2023-05-18T14:11:58.551Z,100.00
2023-05-18T14:14:28.113Z,100.00
2023-05-18T14:16:55.737Z,100.00
2023-05-18T14:19:22.810Z,100.00
2023-05-18T14:21:50.088Z,100.00
2023-05-18T14:24:20.357Z,100.00
2023-05-18T14:26:53.325Z,100.00
2023-05-18T14:29:22.361Z,100.00
2023-05-18T14:31:53.085Z,100.00
2023-05-18T14:34:20.488Z,100.00
2023-05-18T14:36:51.086Z,100.00
2023-05-18T14:39:18.685Z,100.00
2023-05-18T14:41:46.917Z,100.00
2023-05-18T14:44:17.239Z,100.00
2023-05-18T14:46:45.316Z,100.00
2023-05-18T14:49:13.036Z,100.00
2023-05-18T14:51:40.507Z,100.00
2023-05-18T14:54:14.463Z,100.00
2023-05-18T14:56:41.855Z,100.00
2023-05-18T14:59:15.140Z,100.00
2023-05-18T15:01:42.729Z,100.00
2023-05-18T15:04:09.772Z,100.00
2023-05-18T15:06:37.865Z,100.00
2023-05-18T15:09:06.562Z,100.00
2023-05-18T15:11:34.066Z,100.00
2023-05-18T15:14:02.288Z,100.00
2023-05-18T15:16:29.844Z,100.00
2023-05-18T15:18:56.694Z,100.00
2023-05-18T15:21:26.659Z,100.00
2023-05-18T15:23:53.569Z,100.00
2023-05-18T15:26:21.548Z,100.00
2023-05-18T15:28:49.430Z,100.00
2023-05-18T15:31:16.936Z,100.00
2023-05-18T15:33:46.968Z,100.00
2023-05-18T15:36:14.382Z,100.00
2023-05-18T15:38:41.493Z,100.00
2023-05-18T15:41:08.945Z,100.00
2023-05-18T15:43:37.035Z,100.00
2023-05-18T15:46:05.123Z,100.00
2023-05-18T15:48:32.427Z,100.00
2023-05-18T15:51:00.039Z,100.00
2023-05-18T15:53:29.958Z,100.00
2023-05-18T15:55:59.302Z,100.00
2023-05-18T15:58:27.128Z,100.00
2023-05-18T16:00:54.172Z,100.00
2023-05-18T16:03:21.487Z,100.00
2023-05-18T16:05:48.551Z,100.00
2023-05-18T16:08:16.008Z,100.00
2023-05-18T16:10:42.992Z,100.00
2023-05-18T16:13:10.892Z,100.00
2023-05-18T16:15:37.631Z,100.00
2023-05-18T16:18:05.527Z,100.00
2023-05-18T16:20:32.937Z,100.00
2023-05-18T16:23:00.406Z,100.00
2023-05-18T16:25:29.051Z,100.00
2023-05-18T16:27:59.546Z,100.00
2023-05-18T16:30:30.297Z,100.00
2023-05-18T16:33:21.247Z,100.00
2023-05-18T16:35:48.617Z,100.00
2023-05-18T16:38:16.184Z,100.00
2023-05-18T16:40:43.533Z,100.00
2023-05-18T16:43:14.003Z,100.00
2023-05-18T16:45:42.424Z,100.00
2023-05-18T16:48:10.054Z,100.00
2023-05-18T16:50:43.957Z,100.00
2023-05-18T16:53:10.891Z,100.00
2023-05-18T16:55:38.424Z,100.00
2023-05-18T16:58:05.671Z,100.00
2023-05-18T17:00:32.627Z,100.00
2023-05-18T17:02:59.726Z,100.00
2023-05-18T17:05:26.766Z,100.00
2023-05-18T17:07:53.607Z,100.00
2023-05-18T17:10:21.033Z,100.00
2023-05-18T17:12:48.144Z,100.00
2023-05-18T17:15:16.580Z,100.00
2023-05-18T17:17:44.774Z,100.00
2023-05-18T17:20:17.457Z,100.00
2023-05-18T17:22:48.384Z,100.00
2023-05-18T17:25:15.797Z,100.00
2023-05-18T17:27:43.515Z,100.00
2023-05-18T17:30:12.198Z,100.00
2023-05-18T17:32:44.754Z,100.00
2023-05-18T17:35:14.269Z,100.00
2023-05-18T17:37:42.224Z,100.00
2023-05-18T17:40:13.757Z,100.00
2023-05-18T17:42:40.991Z,100.00
2023-05-18T17:45:11.346Z,100.00
2023-05-18T17:47:46.259Z,100.00
2023-05-18T17:50:16.607Z,100.00
2023-05-18T17:52:43.799Z,100.00
2023-05-18T17:55:11.644Z,100.00
2023-05-18T17:57:45.545Z,100.00
2023-05-18T18:00:23.505Z,100.00
2023-05-18T18:02:53.152Z,100.00
2023-05-18T18:05:23.691Z,100.00
2023-05-18T18:07:51.388Z,100.00
2023-05-18T18:10:19.795Z,100.00
2023-05-18T18:12:47.476Z,100.00
2023-05-18T18:15:14.350Z,100.00
2023-05-18T18:17:41.233Z,100.00
2023-05-18T18:20:09.859Z,100.00
2023-05-18T18:22:40.153Z,100.00
2023-05-18T18:25:15.149Z,100.00
2023-05-18T18:27:42.017Z,100.00
2023-05-18T18:30:24.880Z,100.00
2023-05-18T18:32:52.398Z,100.00
2023-05-18T18:38:01.068Z,100.00
2023-05-18T18:40:28.043Z,100.00
2023-05-18T18:42:54.812Z,100.00
2023-05-18T18:45:22.088Z,100.00
2023-05-18T18:47:49.082Z,100.00
2023-05-18T18:50:16.053Z,100.00
2023-05-18T18:52:42.930Z,100.00
2023-05-18T18:55:09.820Z,100.00
2023-05-18T18:57:36.648Z,100.00
2023-05-18T19:00:05.002Z,100.00
2023-05-18T19:02:32.016Z,100.00
2023-05-18T19:04:58.880Z,100.00
2023-05-18T19:07:26.019Z,100.00
2023-05-18T19:09:52.812Z,100.00
2023-05-18T19:12:19.670Z,100.00
2023-05-18T19:14:46.564Z,100.00
2023-05-18T19:17:13.402Z,100.00
2023-05-18T19:19:40.431Z,100.00
2023-05-18T19:22:07.369Z,100.00
2023-05-18T19:24:34.461Z,100.00
2023-05-18T19:27:01.702Z,100.00
2023-05-18T19:29:32.415Z,100.00
2023-05-18T19:31:59.228Z,100.00
2023-05-18T19:34:26.134Z,100.00
2023-05-18T19:36:52.976Z,100.00
2023-05-18T19:39:19.966Z,100.00
2023-05-18T19:41:47.062Z,100.00
2023-05-18T19:44:15.185Z,100.00
2023-05-18T19:46:42.050Z,100.00
2023-05-18T19:49:10.315Z,100.00
2023-05-18T19:51:38.649Z,100.00
2023-05-18T19:54:05.550Z,100.00
2023-05-18T19:56:32.370Z,100.00
2023-05-18T19:58:59.203Z,100.00
2023-05-18T20:01:26.287Z,100.00
2023-05-18T20:03:53.213Z,100.00
2023-05-18T20:06:20.201Z,100.00
2023-05-18T20:08:48.081Z,100.00
2023-05-18T20:11:15.182Z,100.00
2023-05-18T20:13:46.181Z,100.00
2023-05-18T20:16:13.779Z,100.00
2023-05-18T20:18:46.202Z,100.00
2023-05-18T20:21:20.762Z,100.00
2023-05-18T20:24:13.937Z,100.00
2023-05-18T20:26:42.419Z,100.00
2023-05-18T20:29:10.791Z,100.00
2023-05-18T20:32:07.730Z,100.00
2023-05-18T20:34:47.084Z,100.00
2023-05-18T20:37:16.863Z,100.00
2023-05-18T20:39:51.000Z,100.00
2023-05-18T20:42:24.805Z,100.00
2023-05-18T20:46:01.726Z,100.00
2023-05-18T20:51:34.962Z,100.00
2023-05-18T20:54:17.119Z,100.00
2023-05-18T20:56:45.356Z,100.00
2023-05-18T20:59:20.105Z,100.00
2023-05-18T21:02:08.941Z,100.00
2023-05-18T21:04:36.855Z,100.00
2023-05-18T21:07:06.261Z,100.00
2023-05-18T21:09:45.635Z,100.00
2023-05-18T21:12:13.476Z,100.00
2023-05-18T21:14:44.829Z,100.00
2023-05-18T21:17:22.235Z,100.00
2023-05-18T21:19:50.045Z,100.00
2023-05-18T21:22:17.564Z,100.00
2023-05-18T21:24:47.515Z,100.00
2023-05-18T21:27:15.136Z,100.00
2023-05-18T21:29:42.591Z,100.00
2023-05-18T21:32:10.943Z,100.00
2023-05-18T21:34:41.137Z,100.00
2023-05-18T21:37:10.322Z,100.00
2023-05-18T21:39:37.989Z,100.00
2023-05-18T21:42:05.315Z,100.00
2023-05-18T21:44:33.522Z,100.00
2023-05-18T21:47:06.733Z,100.00
2023-05-18T21:49:34.308Z,100.00
2023-05-18T21:52:04.167Z,100.00
2023-05-18T21:54:33.781Z,100.00
2023-05-18T21:57:02.061Z,100.00
2023-05-18T21:59:29.206Z,100.00
2023-05-18T22:01:58.265Z,100.00
2023-05-18T22:04:25.723Z,100.00
2023-05-18T22:07:00.555Z,100.00
2023-05-18T22:09:27.742Z,100.00
2023-05-18T22:11:59.409Z,100.00
2023-05-18T22:14:27.416Z,100.00
2023-05-18T22:16:58.961Z,100.00
2023-05-18T22:19:26.933Z,100.00
2023-05-18T22:21:55.215Z,100.00
2023-05-18T22:24:23.111Z,100.00
2023-05-18T22:26:50.637Z,100.00
2023-05-18T22:29:18.075Z,100.00
2023-05-18T22:31:48.861Z,100.00
2023-05-18T22:34:17.188Z,100.00
2023-05-18T22:36:45.229Z,100.00
2023-05-18T22:39:12.531Z,100.00
2023-05-18T22:41:39.493Z,100.00
2023-05-18T22:44:06.658Z,100.00
2023-05-18T22:46:35.543Z,100.00
2023-05-18T22:49:03.242Z,100.00
2023-05-18T22:51:30.677Z,100.00
2023-05-18T22:53:58.500Z,100.00
2023-05-18T22:56:25.967Z,100.00
2023-05-18T22:58:53.945Z,100.00
2023-05-18T23:01:22.586Z,100.00
2023-05-18T23:03:50.285Z,100.00
2023-05-18T23:06:17.583Z,100.00
2023-05-18T23:08:45.027Z,100.00
2023-05-18T23:11:12.431Z,100.00
2023-05-18T23:13:40.014Z,100.00
2023-05-18T23:16:10.880Z,100.00
2023-05-18T23:18:39.175Z,100.00
2023-05-18T23:21:09.908Z,100.00
2023-05-18T23:23:37.106Z,100.00
2023-05-18T23:26:04.071Z,100.00
2023-05-18T23:28:31.428Z,100.00
2023-05-18T23:30:58.929Z,100.00
2023-05-18T23:33:27.102Z,100.00
2023-05-18T23:35:56.710Z,100.00
2023-05-18T23:38:30.068Z,100.00
2023-05-18T23:40:57.371Z,100.00
2023-05-18T23:43:24.804Z,100.00
2023-05-18T23:45:53.601Z,100.00
2023-05-18T23:48:21.896Z,100.00
2023-05-18T23:50:51.530Z,100.00
2023-05-18T23:53:19.245Z,100.00
2023-05-18T23:55:46.788Z,100.00
2023-05-18T23:58:15.296Z,100.00
